sensor_id;sensor_type;location;lat;lon;timestamp;P1;P4;P2;P0;N10;N4;N25;N1;N05;TS
71804;SPS30;59654;52.216;5.616;2024-02-23T00:00:28;1.62;1.47;1.18;0.80;6.38;6.37;6.30;5.93;4.58;0.74
71804;SPS30;59654;52.216;5.616;2024-02-23T00:01:01;1.79;1.63;1.31;0.88;7.09;7.08;7.00;6.59;5.09;0.74
71804;SPS30;59654;52.216;5.616;2024-02-23T00:01:32;1.56;1.43;1.15;0.78;6.28;6.26;6.20;5.85;4.53;0.74
71804;SPS30;59654;52.216;5.616;2024-02-23T00:02:10;1.23;1.13;0.91;0.62;5.01;5.00;4.95;4.68;3.64;0.74
71804;SPS30;59654;52.216;5.616;2024-02-23T00:02:41;1.92;1.76;1.44;1.00;7.99;7.98;7.90;7.48;5.85;0.73
71804;SPS30;59654;52.216;5.616;2024-02-23T00:03:12;1.73;1.58;1.30;0.90;7.19;7.18;7.11;6.74;5.27;0.73
71804;SPS30;59654;52.216;5.616;2024-02-23T00:03:43;1.60;1.46;1.20;0.83;6.69;6.68;6.61;6.27;4.91;0.73
71804;SPS30;59654;52.216;5.616;2024-02-23T00:04:14;1.54;1.41;1.16;0.80;6.43;6.42;6.35;6.02;4.72;0.73
71804;SPS30;59654;52.216;5.616;2024-02-23T00:04:45;2.01;1.84;1.51;1.05;8.42;8.40;8.32;7.89;6.18;0.73
71804;SPS30;59654;52.216;5.616;2024-02-23T00:05:16;1.71;1.57;1.29;0.90;7.18;7.17;7.10;6.73;5.28;0.73
71804;SPS30;59654;52.216;5.616;2024-02-23T00:05:48;1.48;1.35;1.11;0.76;6.12;6.11;6.05;5.73;4.48;0.73
71804;SPS30;59654;52.216;5.616;2024-02-23T00:06:19;1.38;1.27;1.03;0.71;5.72;5.70;5.65;5.35;4.18;0.73
71804;SPS30;59654;52.216;5.616;2024-02-23T00:06:50;1.74;1.59;1.29;0.89;7.15;7.14;7.07;6.69;5.22;0.73
71804;SPS30;59654;52.216;5.616;2024-02-23T00:07:23;1.31;1.20;0.98;0.69;5.49;5.48;5.43;5.15;4.04;0.72
71804;SPS30;59654;52.216;5.616;2024-02-23T00:07:54;1.42;1.30;1.08;0.76;6.08;6.07;6.01;5.72;4.51;0.71
71804;SPS30;59654;52.216;5.616;2024-02-23T00:08:25;1.94;1.78;1.47;1.04;8.35;8.33;8.26;7.85;6.20;0.72
71804;SPS30;59654;52.216;5.616;2024-02-23T00:08:56;1.81;1.66;1.36;0.96;7.68;7.66;7.59;7.21;5.67;0.72
71804;SPS30;59654;52.216;5.616;2024-02-23T00:09:28;1.63;1.49;1.23;0.86;6.86;6.85;6.78;6.43;5.05;0.72
71804;SPS30;59654;52.216;5.616;2024-02-23T00:09:59;1.75;1.60;1.31;0.91;7.31;7.30;7.23;6.85;5.37;0.73
71804;SPS30;59654;52.216;5.616;2024-02-23T00:10:30;1.16;1.06;0.87;0.61;4.85;4.84;4.80;4.55;3.56;0.72
71804;SPS30;59654;52.216;5.616;2024-02-23T00:11:01;1.79;1.64;1.34;0.92;7.41;7.40;7.32;6.94;5.42;0.73
71804;SPS30;59654;52.216;5.616;2024-02-23T00:11:32;2.06;1.88;1.52;1.03;8.27;8.26;8.17;7.71;5.98;0.75
71804;SPS30;59654;52.216;5.616;2024-02-23T00:12:04;1.85;1.69;1.37;0.92;7.42;7.40;7.33;6.91;5.35;0.75
71804;SPS30;59654;52.216;5.616;2024-02-23T00:12:36;2.29;2.09;1.70;1.15;9.24;9.23;9.13;8.62;6.69;0.75
71804;SPS30;59654;52.216;5.616;2024-02-23T00:13:07;2.34;2.14;1.75;1.21;9.73;9.72;9.62;9.11;7.13;0.73
71804;SPS30;59654;52.216;5.616;2024-02-23T00:13:38;2.13;1.96;1.61;1.14;9.12;9.10;9.02;8.57;6.75;0.71
71804;SPS30;59654;52.216;5.616;2024-02-23T00:14:12;2.30;2.12;1.75;1.24;9.95;9.93;9.84;9.37;7.39;0.71
71804;SPS30;59654;52.216;5.616;2024-02-23T00:14:43;2.40;2.20;1.81;1.27;10.19;10.17;10.08;9.57;7.52;0.71
71804;SPS30;59654;52.216;5.616;2024-02-23T00:15:14;1.74;1.59;1.30;0.90;7.21;7.20;7.13;6.75;5.28;0.73
71804;SPS30;59654;52.216;5.616;2024-02-23T00:15:45;2.05;1.88;1.53;1.05;8.45;8.44;8.35;7.90;6.17;0.73
71804;SPS30;59654;52.216;5.616;2024-02-23T00:16:16;2.39;2.18;1.76;1.19;9.52;9.50;9.40;8.86;6.86;0.74
71804;SPS30;59654;52.216;5.616;2024-02-23T00:16:47;1.76;1.60;1.28;0.85;6.85;6.83;6.76;6.35;4.88;0.75
71804;SPS30;59654;52.216;5.616;2024-02-23T00:17:19;1.90;1.72;1.38;0.92;7.35;7.33;7.25;6.81;5.23;0.74
71804;SPS30;59654;52.216;5.616;2024-02-23T00:17:50;2.25;2.04;1.63;1.08;8.65;8.63;8.53;8.00;6.13;0.74
71804;SPS30;59654;52.216;5.616;2024-02-23T00:18:21;2.32;2.11;1.69;1.13;9.05;9.03;8.93;8.39;6.46;0.73
71804;SPS30;59654;52.216;5.616;2024-02-23T00:18:52;2.34;2.13;1.72;1.15;9.25;9.23;9.13;8.60;6.64;0.73
71804;SPS30;59654;52.216;5.616;2024-02-23T00:19:23;2.16;1.96;1.58;1.05;8.41;8.39;8.30;7.80;6.00;0.74
71804;SPS30;59654;52.216;5.616;2024-02-23T00:19:54;2.27;2.06;1.65;1.09;8.74;8.72;8.62;8.09;6.20;0.75
71804;SPS30;59654;52.216;5.616;2024-02-23T00:20:25;2.31;2.10;1.67;1.10;8.84;8.82;8.72;8.17;6.25;0.76
71804;SPS30;59654;52.216;5.616;2024-02-23T00:20:56;2.37;2.15;1.72;1.14;9.11;9.09;8.99;8.43;6.47;0.75
71804;SPS30;59654;52.216;5.616;2024-02-23T00:21:27;2.35;2.14;1.73;1.16;9.34;9.32;9.22;8.69;6.72;0.74
71804;SPS30;59654;52.216;5.616;2024-02-23T00:21:58;1.91;1.74;1.40;0.94;7.58;7.56;7.48;7.05;5.45;0.74
71804;SPS30;59654;52.216;5.616;2024-02-23T00:22:29;2.13;1.94;1.57;1.06;8.47;8.45;8.36;7.88;6.09;0.73
71804;SPS30;59654;52.216;5.616;2024-02-23T00:23:05;2.13;1.94;1.58;1.07;8.61;8.59;8.50;8.03;6.23;0.73
71804;SPS30;59654;52.216;5.616;2024-02-23T00:23:36;2.11;1.92;1.56;1.07;8.58;8.57;8.48;8.01;6.24;0.72
71804;SPS30;59654;52.216;5.616;2024-02-23T00:24:07;2.58;2.36;1.92;1.31;10.52;10.50;10.40;9.82;7.65;0.73
71804;SPS30;59654;52.216;5.616;2024-02-23T00:24:39;2.46;2.24;1.82;1.25;10.02;10.00;9.89;9.35;7.28;0.73
71804;SPS30;59654;52.216;5.616;2024-02-23T00:25:11;2.51;2.29;1.87;1.29;10.34;10.32;10.22;9.68;7.56;0.72
71804;SPS30;59654;52.216;5.616;2024-02-23T00:25:41;2.41;2.20;1.80;1.24;9.97;9.95;9.85;9.33;7.30;0.72
71804;SPS30;59654;52.216;5.616;2024-02-23T00:26:12;2.19;2.00;1.63;1.13;9.03;9.01;8.92;8.45;6.59;0.73
71804;SPS30;59654;52.216;5.616;2024-02-23T00:26:43;2.65;2.42;1.97;1.34;10.77;10.75;10.64;10.05;7.82;0.74
71804;SPS30;59654;52.216;5.616;2024-02-23T00:27:17;2.71;2.47;2.01;1.37;10.98;10.95;10.84;10.24;7.96;0.73
71804;SPS30;59654;52.216;5.616;2024-02-23T00:27:48;2.81;2.56;2.07;1.39;11.19;11.17;11.05;10.41;8.06;0.74
71804;SPS30;59654;52.216;5.616;2024-02-23T00:28:19;2.12;1.93;1.56;1.05;8.44;8.43;8.34;7.86;6.08;0.74
71804;SPS30;59654;52.216;5.616;2024-02-23T00:28:50;3.49;3.17;2.55;1.71;13.69;13.66;13.51;12.71;9.79;0.75
71804;SPS30;59654;52.216;5.616;2024-02-23T00:29:23;3.00;2.73;2.20;1.47;11.76;11.74;11.61;10.92;8.41;0.75
71804;SPS30;59654;52.216;5.616;2024-02-23T00:29:54;2.67;2.43;1.96;1.31;10.48;10.46;10.35;9.73;7.50;0.75
71804;SPS30;59654;52.216;5.616;2024-02-23T00:30:25;3.33;3.02;2.41;1.59;12.74;12.71;12.56;11.78;9.01;0.77
71804;SPS30;59654;52.216;5.616;2024-02-23T00:30:57;2.98;2.69;2.12;1.36;10.92;10.90;10.76;10.03;7.58;0.79
71804;SPS30;59654;52.216;5.616;2024-02-23T00:31:28;2.68;2.41;1.90;1.21;9.74;9.72;9.60;8.94;6.74;0.79
71804;SPS30;59654;52.216;5.616;2024-02-23T00:31:59;2.45;2.22;1.75;1.13;9.05;9.03;8.92;8.32;6.30;0.78
71804;SPS30;59654;52.216;5.616;2024-02-23T00:32:30;2.39;2.16;1.71;1.11;8.91;8.89;8.78;8.20;6.23;0.77
71804;SPS30;59654;52.216;5.616;2024-02-23T00:33:01;2.86;2.59;2.06;1.34;10.79;10.77;10.64;9.96;7.59;0.77
71804;SPS30;59654;52.216;5.616;2024-02-23T00:33:32;2.51;2.28;1.82;1.20;9.61;9.59;9.48;8.89;6.80;0.76
71804;SPS30;59654;52.216;5.616;2024-02-23T00:34:03;2.59;2.35;1.87;1.23;9.85;9.83;9.72;9.10;6.96;0.76
71804;SPS30;59654;52.216;5.616;2024-02-23T00:34:35;2.75;2.49;1.98;1.30;10.41;10.38;10.26;9.61;7.33;0.77
71804;SPS30;59654;52.216;5.616;2024-02-23T00:35:07;3.22;2.92;2.33;1.53;12.29;12.26;12.12;11.36;8.69;0.77
71804;SPS30;59654;52.216;5.616;2024-02-23T00:35:38;2.94;2.67;2.14;1.41;11.32;11.29;11.17;10.48;8.03;0.77
71804;SPS30;59654;52.216;5.616;2024-02-23T00:36:09;3.41;3.09;2.47;1.62;12.99;12.96;12.81;12.00;9.17;0.78
71804;SPS30;59654;52.216;5.616;2024-02-23T00:36:42;3.93;3.56;2.82;1.82;14.63;14.59;14.42;13.47;10.22;0.79
71804;SPS30;59654;52.216;5.616;2024-02-23T00:37:15;3.61;3.26;2.58;1.66;13.31;13.28;13.11;12.23;9.26;0.80
71804;SPS30;59654;52.216;5.616;2024-02-23T00:37:46;3.65;3.29;2.60;1.67;13.42;13.39;13.23;12.33;9.33;0.80
71804;SPS30;59654;52.216;5.616;2024-02-23T00:38:18;2.66;2.41;1.92;1.26;10.14;10.11;10.00;9.37;7.16;0.78
71804;SPS30;59654;52.216;5.616;2024-02-23T00:38:49;2.50;2.27;1.82;1.20;9.66;9.64;9.53;8.95;6.86;0.78
71804;SPS30;59654;52.216;5.616;2024-02-23T00:39:20;2.36;2.14;1.71;1.13;9.05;9.03;8.93;8.37;6.41;0.78
71804;SPS30;59654;52.216;5.616;2024-02-23T00:39:51;3.35;3.03;2.41;1.57;12.63;12.60;12.46;11.66;8.89;0.79
71804;SPS30;59654;52.216;5.616;2024-02-23T00:40:22;2.98;2.69;2.14;1.39;11.20;11.17;11.04;10.32;7.86;0.79
71804;SPS30;59654;52.216;5.616;2024-02-23T00:40:55;2.80;2.54;2.03;1.33;10.70;10.68;10.56;9.89;7.57;0.78
71804;SPS30;59654;52.216;5.616;2024-02-23T00:41:27;2.70;2.45;1.96;1.29;10.37;10.34;10.23;9.59;7.34;0.78
71804;SPS30;59654;52.216;5.616;2024-02-23T00:41:58;3.12;2.82;2.24;1.45;11.66;11.64;11.50;10.75;8.17;0.79
71804;SPS30;59654;52.216;5.616;2024-02-23T00:42:30;2.91;2.62;2.05;1.30;10.42;10.40;10.26;9.54;7.16;0.81
71804;SPS30;59654;52.216;5.616;2024-02-23T00:43:01;3.10;2.80;2.19;1.39;11.14;11.11;10.96;10.19;7.65;0.79
71804;SPS30;59654;52.216;5.616;2024-02-23T00:43:37;3.21;2.90;2.29;1.46;11.74;11.71;11.57;10.78;8.14;0.79
71804;SPS30;59654;52.216;5.616;2024-02-23T00:44:12;4.67;4.21;3.30;2.09;16.76;16.72;16.50;15.33;11.51;0.79
71804;SPS30;59654;52.216;5.616;2024-02-23T00:44:42;4.53;4.07;3.17;1.97;15.81;15.76;15.55;14.39;10.71;0.80
71804;SPS30;59654;52.216;5.616;2024-02-23T00:45:15;3.50;3.14;2.43;1.50;12.03;12.00;11.83;10.93;8.09;0.80
71804;SPS30;59654;52.216;5.616;2024-02-23T00:45:46;4.12;3.70;2.86;1.75;14.09;14.05;13.85;12.78;9.44;0.80
71804;SPS30;59654;52.216;5.616;2024-02-23T00:46:17;4.50;4.03;3.12;1.92;15.39;15.35;15.13;13.96;10.32;0.80
71804;SPS30;59654;52.216;5.616;2024-02-23T00:46:48;5.04;4.51;3.48;2.12;17.06;17.02;16.77;15.45;11.38;0.81
71804;SPS30;59654;52.216;5.616;2024-02-23T00:47:19;4.41;3.95;3.06;1.88;15.08;15.03;14.82;13.68;10.11;0.79
71804;SPS30;59654;52.216;5.616;2024-02-23T00:47:50;4.05;3.63;2.81;1.72;13.80;13.76;13.56;12.51;9.23;0.80
71804;SPS30;59654;52.216;5.616;2024-02-23T00:48:21;3.20;2.87;2.23;1.37;11.05;11.02;10.86;10.04;7.44;0.79
71804;SPS30;59654;52.216;5.616;2024-02-23T00:48:53;4.11;3.69;2.88;1.79;14.38;14.34;14.14;13.09;9.75;0.78
71804;SPS30;59654;52.216;5.616;2024-02-23T00:49:24;3.77;3.39;2.65;1.66;13.35;13.32;13.14;12.19;9.12;0.77
71804;SPS30;59654;52.216;5.616;2024-02-23T00:49:55;3.74;3.38;2.67;1.71;13.76;13.73;13.56;12.64;9.57;0.76
71804;SPS30;59654;52.216;5.616;2024-02-23T00:50:29;4.36;3.94;3.12;2.01;16.11;16.07;15.88;14.82;11.22;0.76
71804;SPS30;59654;52.216;5.616;2024-02-23T00:51:01;3.55;3.20;2.54;1.64;13.13;13.10;12.94;12.08;9.15;0.75
71804;SPS30;59654;52.216;5.616;2024-02-23T00:51:33;3.32;3.00;2.36;1.50;12.07;12.04;11.89;11.07;8.34;0.76
71804;SPS30;59654;52.216;5.616;2024-02-23T00:52:05;3.85;3.47;2.72;1.71;13.74;13.70;13.52;12.55;9.40;0.77
71804;SPS30;59654;52.216;5.616;2024-02-23T00:52:36;3.72;3.35;2.63;1.67;13.43;13.40;13.22;12.30;9.25;0.77
71804;SPS30;59654;52.216;5.616;2024-02-23T00:53:07;3.95;3.57;2.82;1.81;14.50;14.47;14.29;13.32;10.07;0.76
71804;SPS30;59654;52.216;5.616;2024-02-23T00:53:39;3.60;3.25;2.56;1.64;13.15;13.11;12.95;12.06;9.10;0.76
71804;SPS30;59654;52.216;5.616;2024-02-23T00:54:10;4.57;4.13;3.27;2.10;16.89;16.85;16.65;15.53;11.76;0.76
71804;SPS30;59654;52.216;5.616;2024-02-23T00:54:41;4.06;3.66;2.89;1.86;14.92;14.88;14.70;13.70;10.37;0.77
71804;SPS30;59654;52.216;5.616;2024-02-23T00:55:12;3.52;3.17;2.51;1.61;12.91;12.88;12.72;11.86;8.97;0.77
71804;SPS30;59654;52.216;5.616;2024-02-23T00:55:43;3.11;2.81;2.22;1.43;11.49;11.46;11.32;10.56;8.00;0.77
71804;SPS30;59654;52.216;5.616;2024-02-23T00:56:14;3.90;3.53;2.80;1.81;14.56;14.53;14.35;13.41;10.19;0.76
71804;SPS30;59654;52.216;5.616;2024-02-23T00:56:45;3.03;2.74;2.17;1.40;11.27;11.25;11.11;10.38;7.88;0.76
71804;SPS30;59654;52.216;5.616;2024-02-23T00:57:22;3.40;3.07;2.44;1.58;12.72;12.69;12.54;11.72;8.92;0.76
71804;SPS30;59654;52.216;5.616;2024-02-23T00:57:57;4.21;3.81;3.03;1.97;15.82;15.78;15.59;14.58;11.10;0.76
71804;SPS30;59654;52.216;5.616;2024-02-23T00:58:29;3.44;3.11;2.48;1.62;13.00;12.97;12.82;12.00;9.15;0.76
71804;SPS30;59654;52.216;5.616;2024-02-23T00:59:00;3.78;3.42;2.73;1.79;14.40;14.37;14.20;13.31;10.18;0.76
71804;SPS30;59654;52.216;5.616;2024-02-23T00:59:32;3.94;3.56;2.83;1.83;14.70;14.66;14.48;13.53;10.28;0.78
71804;SPS30;59654;52.216;5.616;2024-02-23T01:00:03;3.93;3.55;2.80;1.80;14.42;14.39;14.21;13.24;10.01;0.78
71804;SPS30;59654;52.216;5.616;2024-02-23T01:00:36;3.71;3.34;2.63;1.68;13.46;13.42;13.25;12.34;9.30;0.78
71804;SPS30;59654;52.216;5.616;2024-02-23T01:01:08;4.26;3.85;3.03;1.94;15.61;15.58;15.38;14.34;10.83;0.78
71804;SPS30;59654;52.216;5.616;2024-02-23T01:01:39;4.18;3.77;2.97;1.90;15.28;15.24;15.05;14.02;10.58;0.78
71804;SPS30;59654;52.216;5.616;2024-02-23T01:02:09;4.49;4.03;3.14;1.96;15.72;15.68;15.47;14.32;10.67;0.80
71804;SPS30;59654;52.216;5.616;2024-02-23T01:02:41;3.96;3.54;2.74;1.67;13.42;13.38;13.19;12.16;8.96;0.81
71804;SPS30;59654;52.216;5.616;2024-02-23T01:03:12;4.53;4.05;3.11;1.88;15.10;15.06;14.84;13.64;9.99;0.82
71804;SPS30;59654;52.216;5.616;2024-02-23T01:03:43;4.28;3.83;2.94;1.77;14.21;14.17;13.96;12.82;9.38;0.82
71804;SPS30;59654;52.216;5.616;2024-02-23T01:04:14;3.94;3.52;2.71;1.63;13.10;13.06;12.87;11.83;8.66;0.82
71804;SPS30;59654;52.216;5.616;2024-02-23T01:04:45;4.98;4.45;3.43;2.08;16.70;16.66;16.41;15.10;11.09;0.81
71804;SPS30;59654;52.216;5.616;2024-02-23T01:05:16;4.19;3.76;2.92;1.80;14.48;14.44;14.24;13.17;9.77;0.80
71804;SPS30;59654;52.216;5.616;2024-02-23T01:05:48;3.94;3.54;2.75;1.70;13.67;13.63;13.45;12.43;9.23;0.80
71804;SPS30;59654;52.216;5.616;2024-02-23T01:06:19;3.74;3.36;2.62;1.64;13.14;13.11;12.93;11.98;8.94;0.79
71804;SPS30;59654;52.216;5.616;2024-02-23T01:06:50;4.13;3.71;2.91;1.83;14.66;14.62;14.43;13.39;10.02;0.79
71804;SPS30;59654;52.216;5.616;2024-02-23T01:07:21;4.72;4.25;3.35;2.13;17.11;17.06;16.85;15.68;11.81;0.79
71804;SPS30;59654;52.216;5.616;2024-02-23T01:07:53;3.96;3.58;2.84;1.84;14.75;14.71;14.54;13.58;10.31;0.76
71804;SPS30;59654;52.216;5.616;2024-02-23T01:08:23;3.81;3.44;2.73;1.76;14.14;14.10;13.93;13.01;9.87;0.77
71804;SPS30;59654;52.216;5.616;2024-02-23T01:08:54;4.40;3.98;3.15;2.04;16.40;16.36;16.16;15.10;11.46;0.77
71804;SPS30;59654;52.216;5.616;2024-02-23T01:09:25;3.73;3.37;2.68;1.74;14.00;13.97;13.80;12.91;9.82;0.76
71804;SPS30;59654;52.216;5.616;2024-02-23T01:09:56;3.54;3.20;2.55;1.67;13.44;13.41;13.25;12.41;9.48;0.76
71804;SPS30;59654;52.216;5.616;2024-02-23T01:10:28;4.12;3.74;2.99;1.97;15.82;15.79;15.61;14.64;11.21;0.76
71804;SPS30;59654;52.216;5.616;2024-02-23T01:11:00;3.90;3.54;2.83;1.87;15.04;15.01;14.84;13.93;10.68;0.75
71804;SPS30;59654;52.216;5.616;2024-02-23T01:11:31;4.14;3.76;3.02;2.01;16.12;16.08;15.91;14.95;11.49;0.74
71804;SPS30;59654;52.216;5.616;2024-02-23T01:12:02;3.74;3.40;2.75;1.85;14.82;14.79;14.63;13.78;10.65;0.74
71804;SPS30;59654;52.216;5.616;2024-02-23T01:12:33;3.70;3.37;2.74;1.86;14.93;14.90;14.74;13.92;10.81;0.74
71804;SPS30;59654;52.216;5.616;2024-02-23T01:13:05;3.48;3.17;2.57;1.75;14.06;14.04;13.89;13.12;10.19;0.73
71804;SPS30;59654;52.216;5.616;2024-02-23T01:13:36;3.54;3.23;2.64;1.82;14.57;14.54;14.39;13.62;10.63;0.73
71804;SPS30;59654;52.216;5.616;2024-02-23T01:14:07;3.65;3.33;2.71;1.86;14.94;14.91;14.76;13.96;10.88;0.73
71804;SPS30;59654;52.216;5.616;2024-02-23T01:14:38;3.32;3.03;2.47;1.70;13.63;13.60;13.47;12.74;9.94;0.73
71804;SPS30;59654;52.216;5.616;2024-02-23T01:15:09;2.95;2.69;2.19;1.50;11.99;11.97;11.85;11.19;8.71;0.73
71804;SPS30;59654;52.216;5.616;2024-02-23T01:15:41;3.51;3.20;2.60;1.78;14.27;14.24;14.09;13.31;10.35;0.73
71804;SPS30;59654;52.216;5.616;2024-02-23T01:16:12;3.76;3.43;2.78;1.90;15.21;15.18;15.03;14.19;11.02;0.73
71804;SPS30;59654;52.216;5.616;2024-02-23T01:16:43;4.40;4.02;3.26;2.23;17.88;17.84;17.66;16.69;12.98;0.74
71804;SPS30;59654;52.216;5.616;2024-02-23T01:17:14;3.49;3.18;2.59;1.77;14.20;14.17;14.03;13.25;10.31;0.74
71804;SPS30;59654;52.216;5.616;2024-02-23T01:17:46;3.60;3.29;2.67;1.83;14.66;14.63;14.48;13.68;10.65;0.74
71804;SPS30;59654;52.216;5.616;2024-02-23T01:18:18;3.74;3.41;2.78;1.90;15.26;15.23;15.07;14.25;11.09;0.74
71804;SPS30;59654;52.216;5.616;2024-02-23T01:18:49;3.83;3.50;2.85;1.97;15.77;15.74;15.58;14.75;11.51;0.73
71804;SPS30;59654;52.216;5.616;2024-02-23T01:19:20;3.10;2.83;2.30;1.57;12.63;12.61;12.48;11.79;9.17;0.75
71804;SPS30;59654;52.216;5.616;2024-02-23T01:19:50;3.63;3.30;2.66;1.80;14.41;14.38;14.22;13.40;10.36;0.76
71804;SPS30;59654;52.216;5.616;2024-02-23T01:20:22;4.39;3.99;3.22;2.16;17.33;17.29;17.11;16.10;12.43;0.76
71804;SPS30;59654;52.216;5.616;2024-02-23T01:20:53;3.50;3.19;2.58;1.75;14.07;14.05;13.90;13.12;10.17;0.74
71804;SPS30;59654;52.216;5.616;2024-02-23T01:21:24;3.54;3.23;2.61;1.77;14.21;14.18;14.03;13.24;10.26;0.75
71804;SPS30;59654;52.216;5.616;2024-02-23T01:21:54;3.56;3.23;2.61;1.75;14.04;14.01;13.86;13.05;10.07;0.75
71804;SPS30;59654;52.216;5.616;2024-02-23T01:22:29;2.97;2.70;2.17;1.45;11.60;11.57;11.44;10.75;8.27;0.76
71804;SPS30;59654;52.216;5.616;2024-02-23T01:23:00;3.16;2.87;2.30;1.53;12.24;12.21;12.07;11.34;8.71;0.76
71804;SPS30;59654;52.216;5.616;2024-02-23T01:23:32;3.42;3.10;2.48;1.64;13.16;13.13;12.98;12.18;9.34;0.76
71804;SPS30;59654;52.216;5.616;2024-02-23T01:24:03;3.81;3.47;2.79;1.87;14.97;14.94;14.77;13.90;10.71;0.75
71804;SPS30;59654;52.216;5.616;2024-02-23T01:24:34;3.56;3.23;2.60;1.74;13.97;13.94;13.79;12.97;10.00;0.76
71804;SPS30;59654;52.216;5.616;2024-02-23T01:25:06;3.11;2.82;2.26;1.49;11.94;11.91;11.78;11.05;8.46;0.77
71804;SPS30;59654;52.216;5.616;2024-02-23T01:25:38;3.05;2.76;2.19;1.42;11.42;11.39;11.26;10.52;8.00;0.78
71804;SPS30;59654;52.216;5.616;2024-02-23T01:26:09;4.38;3.96;3.15;2.05;16.42;16.38;16.19;15.14;11.51;0.77
71804;SPS30;59654;52.216;5.616;2024-02-23T01:26:41;3.74;3.38;2.69;1.74;14.01;13.98;13.81;12.91;9.82;0.77
71804;SPS30;59654;52.216;5.616;2024-02-23T01:27:12;3.65;3.31;2.63;1.71;13.73;13.70;13.54;12.66;9.64;0.76
71804;SPS30;59654;52.216;5.616;2024-02-23T01:27:46;3.54;3.21;2.55;1.67;13.39;13.36;13.20;12.36;9.43;0.76
71804;SPS30;59654;52.216;5.616;2024-02-23T01:28:18;3.49;3.16;2.53;1.67;13.38;13.35;13.20;12.37;9.48;0.75
71804;SPS30;59654;52.216;5.616;2024-02-23T01:28:49;2.84;2.57;2.06;1.36;10.93;10.91;10.78;10.12;7.76;0.75
71804;SPS30;59654;52.216;5.616;2024-02-23T01:29:20;3.15;2.86;2.29;1.52;12.19;12.17;12.03;11.29;8.67;0.75
71804;SPS30;59654;52.216;5.616;2024-02-23T01:29:55;3.16;2.86;2.28;1.49;11.95;11.93;11.79;11.03;8.42;0.76
71804;SPS30;59654;52.216;5.616;2024-02-23T01:30:26;3.30;2.99;2.38;1.55;12.47;12.44;12.29;11.50;8.77;0.77
71804;SPS30;59654;52.216;5.616;2024-02-23T01:30:57;2.74;2.49;1.99;1.31;10.50;10.48;10.36;9.71;7.43;0.76
71804;SPS30;59654;52.216;5.616;2024-02-23T01:31:29;3.23;2.94;2.36;1.58;12.67;12.64;12.50;11.76;9.06;0.75
71804;SPS30;59654;52.216;5.616;2024-02-23T01:32:00;3.24;2.96;2.39;1.61;12.95;12.92;12.79;12.05;9.33;0.75
71804;SPS30;59654;52.216;5.616;2024-02-23T01:32:31;3.41;3.10;2.51;1.69;13.56;13.53;13.39;12.62;9.76;0.76
71804;SPS30;59654;52.216;5.616;2024-02-23T01:33:03;3.42;3.11;2.49;1.66;13.33;13.30;13.16;12.37;9.51;0.77
71804;SPS30;59654;52.216;5.616;2024-02-23T01:33:33;2.97;2.69;2.15;1.42;11.38;11.35;11.22;10.52;8.05;0.78
71804;SPS30;59654;52.216;5.616;2024-02-23T01:34:06;3.03;2.74;2.19;1.43;11.51;11.48;11.35;10.63;8.12;0.78
71804;SPS30;59654;52.216;5.616;2024-02-23T01:34:37;2.81;2.55;2.04;1.34;10.76;10.74;10.62;9.95;7.62;0.77
71804;SPS30;59654;52.216;5.616;2024-02-23T01:35:08;2.96;2.68;2.13;1.39;11.14;11.12;10.99;10.28;7.83;0.78
71804;SPS30;59654;52.216;5.616;2024-02-23T01:35:40;2.96;2.67;2.12;1.37;11.03;11.00;10.87;10.15;7.71;0.79
71804;SPS30;59654;52.216;5.616;2024-02-23T01:36:11;3.24;2.94;2.33;1.52;12.16;12.13;11.99;11.21;8.53;0.78
71804;SPS30;59654;52.216;5.616;2024-02-23T01:36:42;2.96;2.68;2.12;1.37;11.03;11.00;10.87;10.16;7.71;0.79
71804;SPS30;59654;52.216;5.616;2024-02-23T01:37:13;2.95;2.66;2.11;1.36;10.95;10.93;10.79;10.08;7.65;0.79
71804;SPS30;59654;52.216;5.616;2024-02-23T01:37:44;2.29;2.07;1.64;1.07;8.55;8.53;8.43;7.88;5.99;0.79
71804;SPS30;59654;52.216;5.616;2024-02-23T01:38:15;2.48;2.24;1.77;1.14;9.17;9.15;9.04;8.44;6.40;0.79
71804;SPS30;59654;52.216;5.616;2024-02-23T01:38:50;2.43;2.19;1.74;1.12;9.03;9.01;8.90;8.31;6.31;0.79
71804;SPS30;59654;52.216;5.616;2024-02-23T01:39:22;2.37;2.14;1.69;1.09;8.76;8.74;8.63;8.06;6.11;0.79
71804;SPS30;59654;52.216;5.616;2024-02-23T01:39:53;2.69;2.43;1.93;1.25;10.03;10.00;9.88;9.23;7.02;0.79
71804;SPS30;59654;52.216;5.616;2024-02-23T01:40:24;2.56;2.32;1.84;1.19;9.55;9.53;9.41;8.79;6.67;0.79
71804;SPS30;59654;52.216;5.616;2024-02-23T01:40:56;1.85;1.67;1.32;0.85;6.81;6.80;6.71;6.26;4.74;0.79
71804;SPS30;59654;52.216;5.616;2024-02-23T01:41:27;2.30;2.08;1.65;1.07;8.55;8.53;8.43;7.87;5.97;0.79
71804;SPS30;59654;52.216;5.616;2024-02-23T01:41:59;2.58;2.34;1.86;1.22;9.78;9.76;9.64;9.03;6.89;0.78
71804;SPS30;59654;52.216;5.616;2024-02-23T01:42:32;2.46;2.23;1.79;1.18;9.50;9.48;9.37;8.80;6.75;0.77
71804;SPS30;59654;52.216;5.616;2024-02-23T01:43:04;1.83;1.66;1.33;0.89;7.11;7.10;7.02;6.60;5.07;0.77
71804;SPS30;59654;52.216;5.616;2024-02-23T01:43:35;1.59;1.45;1.17;0.78;6.29;6.27;6.21;5.84;4.51;0.76
71804;SPS30;59654;52.216;5.616;2024-02-23T01:44:06;1.63;1.48;1.19;0.80;6.40;6.38;6.32;5.94;4.58;0.77
71804;SPS30;59654;52.216;5.616;2024-02-23T01:44:37;1.70;1.54;1.24;0.83;6.62;6.61;6.53;6.14;4.72;0.77
71804;SPS30;59654;52.216;5.616;2024-02-23T01:45:09;1.72;1.56;1.25;0.83;6.70;6.68;6.61;6.21;4.78;0.77
71804;SPS30;59654;52.216;5.616;2024-02-23T01:45:41;2.13;1.93;1.55;1.04;8.31;8.29;8.20;7.71;5.93;0.76
71804;SPS30;59654;52.216;5.616;2024-02-23T01:46:12;2.25;2.05;1.64;1.10;8.79;8.77;8.68;8.15;6.27;0.75
71804;SPS30;59654;52.216;5.616;2024-02-23T01:46:47;2.42;2.20;1.77;1.18;9.49;9.47;9.37;8.81;6.79;0.75
71804;SPS30;59654;52.216;5.616;2024-02-23T01:47:20;2.36;2.14;1.72;1.14;9.17;9.15;9.05;8.50;6.54;0.75
71804;SPS30;59654;52.216;5.616;2024-02-23T01:47:53;2.54;2.30;1.83;1.20;9.63;9.61;9.50;8.90;6.79;0.77
71804;SPS30;59654;52.216;5.616;2024-02-23T01:48:24;1.92;1.74;1.39;0.91;7.28;7.26;7.18;6.72;5.13;0.77
71804;SPS30;59654;52.216;5.616;2024-02-23T01:48:58;2.68;2.44;1.96;1.31;10.51;10.49;10.38;9.76;7.52;0.74
71804;SPS30;59654;52.216;5.616;2024-02-23T01:49:30;2.66;2.42;1.94;1.30;10.40;10.38;10.26;9.65;7.42;0.75
71804;SPS30;59654;52.216;5.616;2024-02-23T01:50:04;2.89;2.62;2.10;1.38;11.07;11.05;10.92;10.24;7.83;0.76
71804;SPS30;59654;52.216;5.616;2024-02-23T01:50:38;2.70;2.45;1.96;1.29;10.35;10.33;10.21;9.58;7.33;0.76
71804;SPS30;59654;52.216;5.616;2024-02-23T01:51:11;2.03;1.84;1.48;0.98;7.88;7.86;7.78;7.31;5.62;0.76
71804;SPS30;59654;52.216;5.616;2024-02-23T01:51:44;2.47;2.25;1.81;1.21;9.73;9.71;9.60;9.04;6.97;0.75
71804;SPS30;59654;52.216;5.616;2024-02-23T01:52:15;2.21;2.01;1.62;1.09;8.73;8.71;8.62;8.11;6.26;0.75
71804;SPS30;59654;52.216;5.616;2024-02-23T01:52:48;2.29;2.08;1.69;1.14;9.16;9.14;9.05;8.53;6.61;0.75
71804;SPS30;59654;52.216;5.616;2024-02-23T01:53:21;2.50;2.28;1.84;1.24;9.91;9.89;9.79;9.22;7.12;0.75
71804;SPS30;59654;52.216;5.616;2024-02-23T01:53:56;2.27;2.07;1.67;1.12;9.03;9.01;8.91;8.39;6.49;0.75
71804;SPS30;59654;52.216;5.616;2024-02-23T01:54:28;1.97;1.80;1.46;1.00;8.01;7.99;7.91;7.47;5.81;0.73
71804;SPS30;59654;52.216;5.616;2024-02-23T01:55:01;2.48;2.26;1.83;1.25;10.01;9.99;9.89;9.34;7.25;0.74
71804;SPS30;59654;52.216;5.616;2024-02-23T01:55:33;2.93;2.67;2.16;1.47;11.78;11.75;11.63;10.97;8.51;0.75
71804;SPS30;59654;52.216;5.616;2024-02-23T01:56:05;2.18;1.99;1.61;1.08;8.70;8.68;8.59;8.09;6.26;0.76
71804;SPS30;59654;52.216;5.616;2024-02-23T01:56:37;2.67;2.43;1.97;1.33;10.70;10.68;10.57;9.97;7.73;0.74
71804;SPS30;59654;52.216;5.616;2024-02-23T01:57:10;2.60;2.37;1.93;1.32;10.55;10.53;10.42;9.85;7.66;0.74
71804;SPS30;59654;52.216;5.616;2024-02-23T01:57:43;1.99;1.81;1.47;1.00;8.04;8.02;7.94;7.49;5.82;0.75
71804;SPS30;59654;52.216;5.616;2024-02-23T01:58:17;2.10;1.91;1.54;1.04;8.36;8.35;8.26;7.79;6.03;0.75
71804;SPS30;59654;52.216;5.616;2024-02-23T01:58:48;2.47;2.25;1.82;1.23;9.87;9.85;9.75;9.19;7.12;0.75
71804;SPS30;59654;52.216;5.616;2024-02-23T01:59:20;2.23;2.03;1.64;1.12;8.95;8.93;8.84;8.34;6.47;0.75
71804;SPS30;59654;52.216;5.616;2024-02-23T01:59:51;2.37;2.16;1.74;1.17;9.41;9.39;9.30;8.76;6.77;0.74
71804;SPS30;59654;52.216;5.616;2024-02-23T02:00:26;2.33;2.13;1.73;1.19;9.51;9.49;9.40;8.88;6.92;0.73
71804;SPS30;59654;52.216;5.616;2024-02-23T02:00:59;2.11;1.93;1.58;1.10;8.82;8.81;8.72;8.27;6.49;0.72
71804;SPS30;59654;52.216;5.616;2024-02-23T02:01:30;1.93;1.77;1.46;1.02;8.21;8.20;8.12;7.72;6.07;0.71
71804;SPS30;59654;52.216;5.616;2024-02-23T02:02:03;1.84;1.69;1.40;0.99;7.94;7.93;7.86;7.48;5.91;0.70